sensor_id;sensor_type;location;lat;lon;timestamp;P1;durP1;ratioP1;P2;durP2;ratioP2
60306;SDS011;46155;52.364;6.580;2023-03-30T03:02:33;12.13;;;11.03;;
60306;SDS011;46155;52.364;6.580;2023-03-30T03:05:04;13.27;;;12.27;;
60306;SDS011;46155;52.364;6.580;2023-03-30T03:07:33;13.53;;;12.23;;
60306;SDS011;46155;52.364;6.580;2023-03-30T03:09:59;13.57;;;12.17;;
60306;SDS011;46155;52.364;6.580;2023-03-30T03:12:25;12.70;;;11.73;;
60306;SDS011;46155;52.364;6.580;2023-03-30T03:14:52;14.13;;;12.60;;
60306;SDS011;46155;52.364;6.580;2023-03-30T03:17:17;15.03;;;13.70;;
60306;SDS011;46155;52.364;6.580;2023-03-30T03:19:46;14.40;;;12.27;;
60306;SDS011;46155;52.364;6.580;2023-03-30T03:22:12;13.67;;;12.40;;
60306;SDS011;46155;52.364;6.580;2023-03-30T03:24:38;13.40;;;12.40;;
60306;SDS011;46155;52.364;6.580;2023-03-30T03:27:04;13.87;;;12.13;;
60306;SDS011;46155;52.364;6.580;2023-03-30T03:29:30;13.60;;;12.50;;
60306;SDS011;46155;52.364;6.580;2023-03-30T03:31:56;14.10;;;11.53;;
60306;SDS011;46155;52.364;6.580;2023-03-30T03:34:21;12.00;;;11.00;;
60306;SDS011;46155;52.364;6.580;2023-03-30T03:36:50;13.90;;;12.87;;
60306;SDS011;46155;52.364;6.580;2023-03-30T03:39:16;14.07;;;13.07;;
60306;SDS011;46155;52.364;6.580;2023-03-30T03:41:41;13.40;;;12.20;;
60306;SDS011;46155;52.364;6.580;2023-03-30T03:44:07;18.53;;;11.77;;
60306;SDS011;46155;52.364;6.580;2023-03-30T03:46:32;13.47;;;12.57;;
60306;SDS011;46155;52.364;6.580;2023-03-30T03:48:57;12.43;;;11.20;;
60306;SDS011;46155;52.364;6.580;2023-03-30T03:51:23;12.40;;;10.20;;
60306;SDS011;46155;52.364;6.580;2023-03-30T03:53:48;14.67;;;13.20;;
60306;SDS011;46155;52.364;6.580;2023-03-30T03:56:13;11.47;;;10.80;;
60306;SDS011;46155;52.364;6.580;2023-03-30T03:58:39;13.13;;;11.40;;
60306;SDS011;46155;52.364;6.580;2023-03-30T04:01:04;12.37;;;11.37;;
60306;SDS011;46155;52.364;6.580;2023-03-30T04:03:31;12.53;;;11.27;;
60306;SDS011;46155;52.364;6.580;2023-03-30T04:05:57;11.93;;;10.93;;
60306;SDS011;46155;52.364;6.580;2023-03-30T04:08:24;12.23;;;11.33;;
60306;SDS011;46155;52.364;6.580;2023-03-30T04:10:49;11.00;;;10.10;;
60306;SDS011;46155;52.364;6.580;2023-03-30T04:13:14;11.77;;;10.80;;
60306;SDS011;46155;52.364;6.580;2023-03-30T04:15:40;12.60;;;11.40;;
60306;SDS011;46155;52.364;6.580;2023-03-30T04:18:05;11.53;;;10.63;;
60306;SDS011;46155;52.364;6.580;2023-03-30T04:20:32;10.67;;;9.93;;
60306;SDS011;46155;52.364;6.580;2023-03-30T04:22:57;11.80;;;10.57;;
60306;SDS011;46155;52.364;6.580;2023-03-30T04:25:26;10.27;;;9.60;;
60306;SDS011;46155;52.364;6.580;2023-03-30T04:27:51;11.93;;;10.93;;
60306;SDS011;46155;52.364;6.580;2023-03-30T04:30:17;11.90;;;10.77;;
60306;SDS011;46155;52.364;6.580;2023-03-30T04:32:44;11.57;;;10.50;;
60306;SDS011;46155;52.364;6.580;2023-03-30T04:35:11;11.53;;;10.53;;
60306;SDS011;46155;52.364;6.580;2023-03-30T04:37:38;12.50;;;11.43;;
60306;SDS011;46155;52.364;6.580;2023-03-30T04:40:06;12.43;;;11.43;;
60306;SDS011;46155;52.364;6.580;2023-03-30T04:42:33;12.40;;;11.60;;
60306;SDS011;46155;52.364;6.580;2023-03-30T04:45:08;13.63;;;11.10;;
60306;SDS011;46155;52.364;6.580;2023-03-30T04:47:34;13.53;;;12.50;;
60306;SDS011;46155;52.364;6.580;2023-03-30T04:50:00;12.87;;;11.97;;
60306;SDS011;46155;52.364;6.580;2023-03-30T04:52:25;13.17;;;12.03;;
60306;SDS011;46155;52.364;6.580;2023-03-30T04:54:51;12.50;;;11.70;;
60306;SDS011;46155;52.364;6.580;2023-03-30T04:57:16;12.73;;;11.87;;
60306;SDS011;46155;52.364;6.580;2023-03-30T04:59:42;13.27;;;12.37;;
60306;SDS011;46155;52.364;6.580;2023-03-30T05:02:08;13.00;;;12.03;;
60306;SDS011;46155;52.364;6.580;2023-03-30T05:04:35;13.33;;;12.23;;
60306;SDS011;46155;52.364;6.580;2023-03-30T05:07:02;15.53;;;11.93;;
60306;SDS011;46155;52.364;6.580;2023-03-30T05:09:28;12.60;;;11.60;;
60306;SDS011;46155;52.364;6.580;2023-03-30T05:11:53;11.57;;;10.57;;
60306;SDS011;46155;52.364;6.580;2023-03-30T05:14:18;13.20;;;12.07;;
60306;SDS011;46155;52.364;6.580;2023-03-30T05:16:44;12.13;;;11.13;;
60306;SDS011;46155;52.364;6.580;2023-03-30T05:19:09;11.40;;;10.40;;
60306;SDS011;46155;52.364;6.580;2023-03-30T05:21:35;15.07;;;10.03;;
60306;SDS011;46155;52.364;6.580;2023-03-30T05:24:00;10.43;;;9.40;;
60306;SDS011;46155;52.364;6.580;2023-03-30T05:26:26;9.53;;;8.93;;
60306;SDS011;46155;52.364;6.580;2023-03-30T05:28:52;9.43;;;8.73;;
60306;SDS011;46155;52.364;6.580;2023-03-30T05:31:18;10.33;;;9.50;;
60306;SDS011;46155;52.364;6.580;2023-03-30T05:33:43;11.43;;;9.50;;
60306;SDS011;46155;52.364;6.580;2023-03-30T05:36:09;8.70;;;7.70;;
60306;SDS011;46155;52.364;6.580;2023-03-30T05:38:34;8.53;;;7.93;;
60306;SDS011;46155;52.364;6.580;2023-03-30T05:41:00;9.80;;;7.83;;
60306;SDS011;46155;52.364;6.580;2023-03-30T05:43:26;12.07;;;7.97;;
60306;SDS011;46155;52.364;6.580;2023-03-30T05:45:51;8.10;;;7.50;;
60306;SDS011;46155;52.364;6.580;2023-03-30T05:48:17;12.20;;;7.20;;
60306;SDS011;46155;52.364;6.580;2023-03-30T05:50:42;8.03;;;7.43;;
60306;SDS011;46155;52.364;6.580;2023-03-30T05:53:08;9.77;;;8.00;;
60306;SDS011;46155;52.364;6.580;2023-03-30T05:55:33;9.57;;;8.77;;
60306;SDS011;46155;52.364;6.580;2023-03-30T05:57:58;12.90;;;9.90;;
60306;SDS011;46155;52.364;6.580;2023-03-30T06:00:24;10.07;;;9.03;;
60306;SDS011;46155;52.364;6.580;2023-03-30T06:02:50;9.67;;;9.07;;
60306;SDS011;46155;52.364;6.580;2023-03-30T06:05:16;11.13;;;10.00;;
60306;SDS011;46155;52.364;6.580;2023-03-30T06:07:42;11.27;;;10.37;;
60306;SDS011;46155;52.364;6.580;2023-03-30T06:10:09;12.27;;;10.30;;
60306;SDS011;46155;52.364;6.580;2023-03-30T06:12:35;10.93;;;9.93;;
60306;SDS011;46155;52.364;6.580;2023-03-30T06:15:00;10.63;;;9.90;;
60306;SDS011;46155;52.364;6.580;2023-03-30T06:17:27;10.87;;;9.87;;
60306;SDS011;46155;52.364;6.580;2023-03-30T06:19:53;11.87;;;10.87;;
60306;SDS011;46155;52.364;6.580;2023-03-30T06:22:18;10.27;;;9.50;;
60306;SDS011;46155;52.364;6.580;2023-03-30T06:24:45;12.93;;;10.73;;
60306;SDS011;46155;52.364;6.580;2023-03-30T06:27:11;10.73;;;9.63;;
60306;SDS011;46155;52.364;6.580;2023-03-30T06:29:36;15.13;;;9.67;;
60306;SDS011;46155;52.364;6.580;2023-03-30T06:32:02;11.03;;;10.20;;
60306;SDS011;46155;52.364;6.580;2023-03-30T06:34:27;14.83;;;10.93;;
60306;SDS011;46155;52.364;6.580;2023-03-30T06:36:53;11.23;;;10.40;;
60306;SDS011;46155;52.364;6.580;2023-03-30T06:39:19;11.20;;;10.47;;
60306;SDS011;46155;52.364;6.580;2023-03-30T06:41:45;16.07;;;10.47;;
60306;SDS011;46155;52.364;6.580;2023-03-30T06:44:11;11.20;;;10.20;;
60306;SDS011;46155;52.364;6.580;2023-03-30T06:46:38;11.97;;;10.87;;
60306;SDS011;46155;52.364;6.580;2023-03-30T06:49:06;12.90;;;11.67;;
60306;SDS011;46155;52.364;6.580;2023-03-30T06:51:32;12.67;;;11.07;;
60306;SDS011;46155;52.364;6.580;2023-03-30T06:54:01;12.50;;;11.20;;
60306;SDS011;46155;52.364;6.580;2023-03-30T06:56:27;12.27;;;10.93;;
60306;SDS011;46155;52.364;6.580;2023-03-30T06:58:52;12.43;;;9.83;;
60306;SDS011;46155;52.364;6.580;2023-03-30T07:01:18;13.23;;;9.20;;
60306;SDS011;46155;52.364;6.580;2023-03-30T07:03:43;9.70;;;8.77;;
60306;SDS011;46155;52.364;6.580;2023-03-30T07:06:09;11.77;;;9.53;;
60306;SDS011;46155;52.364;6.580;2023-03-30T07:08:35;12.00;;;9.03;;
60306;SDS011;46155;52.364;6.580;2023-03-30T07:11:01;11.27;;;9.27;;
60306;SDS011;46155;52.364;6.580;2023-03-30T07:13:27;11.87;;;9.63;;
60306;SDS011;46155;52.364;6.580;2023-03-30T07:15:53;10.27;;;9.47;;
60306;SDS011;46155;52.364;6.580;2023-03-30T07:18:18;9.07;;;8.37;;
60306;SDS011;46155;52.364;6.580;2023-03-30T07:20:44;10.13;;;8.50;;
60306;SDS011;46155;52.364;6.580;2023-03-30T07:23:10;9.90;;;9.00;;
60306;SDS011;46155;52.364;6.580;2023-03-30T07:25:37;14.20;;;9.03;;
60306;SDS011;46155;52.364;6.580;2023-03-30T07:28:03;12.13;;;8.53;;
60306;SDS011;46155;52.364;6.580;2023-03-30T07:30:30;12.10;;;8.23;;
60306;SDS011;46155;52.364;6.580;2023-03-30T07:32:56;9.60;;;8.70;;
60306;SDS011;46155;52.364;6.580;2023-03-30T07:35:22;11.97;;;9.13;;
60306;SDS011;46155;52.364;6.580;2023-03-30T07:37:48;10.17;;;9.20;;
60306;SDS011;46155;52.364;6.580;2023-03-30T07:40:13;9.73;;;8.83;;
60306;SDS011;46155;52.364;6.580;2023-03-30T07:42:38;13.57;;;9.63;;
60306;SDS011;46155;52.364;6.580;2023-03-30T07:45:05;14.90;;;9.67;;
60306;SDS011;46155;52.364;6.580;2023-03-30T07:47:30;10.07;;;9.27;;
60306;SDS011;46155;52.364;6.580;2023-03-30T07:49:56;16.73;;;9.40;;
60306;SDS011;46155;52.364;6.580;2023-03-30T07:52:21;13.97;;;9.40;;
60306;SDS011;46155;52.364;6.580;2023-03-30T07:54:46;13.43;;;8.73;;
60306;SDS011;46155;52.364;6.580;2023-03-30T07:57:12;13.50;;;8.57;;
60306;SDS011;46155;52.364;6.580;2023-03-30T07:59:37;8.93;;;8.00;;
60306;SDS011;46155;52.364;6.580;2023-03-30T08:02:03;15.30;;;8.40;;
60306;SDS011;46155;52.364;6.580;2023-03-30T08:04:29;10.90;;;7.27;;
60306;SDS011;46155;52.364;6.580;2023-03-30T08:06:55;16.17;;;7.87;;
60306;SDS011;46155;52.364;6.580;2023-03-30T08:09:21;7.77;;;6.87;;
60306;SDS011;46155;52.364;6.580;2023-03-30T08:11:46;9.63;;;6.93;;
60306;SDS011;46155;52.364;6.580;2023-03-30T08:14:12;24.63;;;7.20;;
60306;SDS011;46155;52.364;6.580;2023-03-30T08:16:37;18.43;;;8.40;;
60306;SDS011;46155;52.364;6.580;2023-03-30T08:19:02;10.20;;;6.67;;
60306;SDS011;46155;52.364;6.580;2023-03-30T08:21:28;12.77;;;6.77;;
60306;SDS011;46155;52.364;6.580;2023-03-30T08:23:54;16.83;;;7.30;;
60306;SDS011;46155;52.364;6.580;2023-03-30T08:26:26;8.83;;;6.70;;
60306;SDS011;46155;52.364;6.580;2023-03-30T08:28:52;13.70;;;6.80;;
60306;SDS011;46155;52.364;6.580;2023-03-30T08:31:17;9.90;;;6.53;;
60306;SDS011;46155;52.364;6.580;2023-03-30T08:33:44;9.53;;;6.07;;
60306;SDS011;46155;52.364;6.580;2023-03-30T08:36:10;10.10;;;7.30;;
60306;SDS011;46155;52.364;6.580;2023-03-30T08:38:36;8.23;;;7.20;;
60306;SDS011;46155;52.364;6.580;2023-03-30T08:41:09;9.70;;;7.03;;
60306;SDS011;46155;52.364;6.580;2023-03-30T08:46:25;15.37;;;7.20;;
60306;SDS011;46155;52.364;6.580;2023-03-30T08:48:52;15.20;;;6.97;;
60306;SDS011;46155;52.364;6.580;2023-03-30T08:53:55;15.90;;;6.37;;
60306;SDS011;46155;52.364;6.580;2023-03-30T08:56:25;9.63;;;6.23;;
60306;SDS011;46155;52.364;6.580;2023-03-30T08:59:00;14.50;;;6.20;;
60306;SDS011;46155;52.364;6.580;2023-03-30T09:01:34;10.60;;;6.47;;
60306;SDS011;46155;52.364;6.580;2023-03-30T09:07:21;14.73;;;6.50;;
60306;SDS011;46155;52.364;6.580;2023-03-30T09:09:48;14.00;;;5.57;;
60306;SDS011;46155;52.364;6.580;2023-03-30T09:12:31;15.10;;;6.40;;
60306;SDS011;46155;52.364;6.580;2023-03-30T09:20:51;15.50;;;6.67;;
60306;SDS011;46155;52.364;6.580;2023-03-30T09:23:20;13.00;;;7.83;;
60306;SDS011;46155;52.364;6.580;2023-03-30T09:25:49;10.30;;;7.40;;
60306;SDS011;46155;52.364;6.580;2023-03-30T09:31:19;17.40;;;6.97;;
60306;SDS011;46155;52.364;6.580;2023-03-30T09:34:02;9.60;;;6.43;;
60306;SDS011;46155;52.364;6.580;2023-03-30T09:39:27;12.23;;;6.57;;
60306;SDS011;46155;52.364;6.580;2023-03-30T09:44:57;18.70;;;6.87;;
60306;SDS011;46155;52.364;6.580;2023-03-30T09:50:04;16.90;;;6.93;;
60306;SDS011;46155;52.364;6.580;2023-03-30T09:52:34;16.33;;;6.30;;
60306;SDS011;46155;52.364;6.580;2023-03-30T09:57:49;12.07;;;7.40;;
60306;SDS011;46155;52.364;6.580;2023-03-30T10:00:29;13.23;;;6.17;;
60306;SDS011;46155;52.364;6.580;2023-03-30T10:03:00;9.83;;;5.83;;
60306;SDS011;46155;52.364;6.580;2023-03-30T10:05:27;12.27;;;6.07;;
60306;SDS011;46155;52.364;6.580;2023-03-30T10:07:55;15.27;;;6.90;;
60306;SDS011;46155;52.364;6.580;2023-03-30T10:12:53;18.07;;;7.17;;
60306;SDS011;46155;52.364;6.580;2023-03-30T10:15:20;19.33;;;7.27;;
60306;SDS011;46155;52.364;6.580;2023-03-30T10:17:51;9.70;;;6.23;;
60306;SDS011;46155;52.364;6.580;2023-03-30T10:22:50;23.40;;;7.07;;
60306;SDS011;46155;52.364;6.580;2023-03-30T10:25:23;8.83;;;6.50;;
60306;SDS011;46155;52.364;6.580;2023-03-30T10:27:53;14.97;;;5.50;;
60306;SDS011;46155;52.364;6.580;2023-03-30T10:30:21;12.80;;;6.10;;
60306;SDS011;46155;52.364;6.580;2023-03-30T10:32:48;8.40;;;5.17;;
60306;SDS011;46155;52.364;6.580;2023-03-30T10:35:17;13.00;;;6.47;;
60306;SDS011;46155;52.364;6.580;2023-03-30T10:37:46;15.63;;;5.83;;
60306;SDS011;46155;52.364;6.580;2023-03-30T10:40:17;12.77;;;5.90;;
60306;SDS011;46155;52.364;6.580;2023-03-30T10:42:45;11.73;;;6.17;;
60306;SDS011;46155;52.364;6.580;2023-03-30T10:45:18;9.40;;;6.00;;
60306;SDS011;46155;52.364;6.580;2023-03-30T10:47:52;9.27;;;6.57;;
60306;SDS011;46155;52.364;6.580;2023-03-30T10:55:49;15.43;;;6.77;;
60306;SDS011;46155;52.364;6.580;2023-03-30T11:01:33;14.20;;;6.10;;
60306;SDS011;46155;52.364;6.580;2023-03-30T11:04:03;13.37;;;5.17;;
60306;SDS011;46155;52.364;6.580;2023-03-30T11:06:44;8.53;;;5.50;;
60306;SDS011;46155;52.364;6.580;2023-03-30T11:09:12;9.70;;;5.27;;
60306;SDS011;46155;52.364;6.580;2023-03-30T11:11:56;17.57;;;6.03;;
60306;SDS011;46155;52.364;6.580;2023-03-30T11:14:34;7.77;;;5.93;;
60306;SDS011;46155;52.364;6.580;2023-03-30T11:17:11;21.50;;;7.10;;
60306;SDS011;46155;52.364;6.580;2023-03-30T11:19:45;10.03;;;6.83;;
60306;SDS011;46155;52.364;6.580;2023-03-30T11:25:08;12.73;;;5.80;;
60306;SDS011;46155;52.364;6.580;2023-03-30T11:27:48;16.77;;;5.73;;
60306;SDS011;46155;52.364;6.580;2023-03-30T11:30:21;17.90;;;6.50;;
60306;SDS011;46155;52.364;6.580;2023-03-30T11:38:20;22.97;;;6.30;;
60306;SDS011;46155;52.364;6.580;2023-03-30T11:40:52;11.87;;;5.73;;
60306;SDS011;46155;52.364;6.580;2023-03-30T11:43:22;10.67;;;5.87;;
60306;SDS011;46155;52.364;6.580;2023-03-30T11:51:55;17.70;;;6.20;;
60306;SDS011;46155;52.364;6.580;2023-03-30T11:55:02;18.67;;;6.10;;
60306;SDS011;46155;52.364;6.580;2023-03-30T12:03:03;15.10;;;5.93;;
60306;SDS011;46155;52.364;6.580;2023-03-30T12:05:44;19.20;;;6.40;;
60306;SDS011;46155;52.364;6.580;2023-03-30T12:08:58;14.33;;;5.90;;
60306;SDS011;46155;52.364;6.580;2023-03-30T12:13:46;27.70;;;7.17;;
60306;SDS011;46155;52.364;6.580;2023-03-30T12:16:15;21.17;;;6.70;;
60306;SDS011;46155;52.364;6.580;2023-03-30T12:21:23;24.43;;;6.60;;
60306;SDS011;46155;52.364;6.580;2023-03-30T12:24:34;19.67;;;7.07;;
60306;SDS011;46155;52.364;6.580;2023-03-30T12:26:42;29.83;;;8.30;;
60306;SDS011;46155;52.364;6.580;2023-03-30T12:29:15;20.87;;;7.20;;
60306;SDS011;46155;52.364;6.580;2023-03-30T12:34:15;27.87;;;9.27;;
60306;SDS011;46155;52.364;6.580;2023-03-30T12:36:41;17.13;;;7.03;;
60306;SDS011;46155;52.364;6.580;2023-03-30T12:40:14;21.60;;;8.27;;
60306;SDS011;46155;52.364;6.580;2023-03-30T12:50:08;19.87;;;7.20;;
60306;SDS011;46155;52.364;6.580;2023-03-30T12:53:01;23.70;;;7.10;;
60306;SDS011;46155;52.364;6.580;2023-03-30T13:01:44;22.70;;;6.50;;
60306;SDS011;46155;52.364;6.580;2023-03-30T13:04:24;17.37;;;7.77;;
60306;SDS011;46155;52.364;6.580;2023-03-30T13:06:57;18.37;;;7.40;;
60306;SDS011;46155;52.364;6.580;2023-03-30T13:27:08;36.00;;;7.27;;
60306;SDS011;46155;52.364;6.580;2023-03-30T13:29:37;8.90;;;5.93;;
60306;SDS011;46155;52.364;6.580;2023-03-30T13:34:53;13.10;;;6.93;;
60306;SDS011;46155;52.364;6.580;2023-03-30T13:40:10;11.20;;;6.40;;
60306;SDS011;46155;52.364;6.580;2023-03-30T13:42:48;20.40;;;7.57;;
60306;SDS011;46155;52.364;6.580;2023-03-30T13:45:25;26.87;;;7.03;;
60306;SDS011;46155;52.364;6.580;2023-03-30T13:50:44;14.57;;;7.27;;
60306;SDS011;46155;52.364;6.580;2023-03-30T13:53:12;20.30;;;7.57;;
60306;SDS011;46155;52.364;6.580;2023-03-30T13:55:41;24.63;;;8.27;;
60306;SDS011;46155;52.364;6.580;2023-03-30T13:58:25;13.63;;;7.60;;
60306;SDS011;46155;52.364;6.580;2023-03-30T14:00:55;12.30;;;6.63;;
60306;SDS011;46155;52.364;6.580;2023-03-30T14:06:00;15.73;;;7.10;;
60306;SDS011;46155;52.364;6.580;2023-03-30T14:08:32;18.90;;;6.37;;
60306;SDS011;46155;52.364;6.580;2023-03-30T14:11:01;12.60;;;6.43;;
60306;SDS011;46155;52.364;6.580;2023-03-30T14:13:31;8.60;;;5.93;;
60306;SDS011;46155;52.364;6.580;2023-03-30T14:15:57;13.73;;;5.40;;
60306;SDS011;46155;52.364;6.580;2023-03-30T14:18:23;11.50;;;5.47;;
60306;SDS011;46155;52.364;6.580;2023-03-30T14:20:51;9.40;;;4.83;;
60306;SDS011;46155;52.364;6.580;2023-03-30T14:23:37;6.70;;;4.83;;
60306;SDS011;46155;52.364;6.580;2023-03-30T14:26:11;11.53;;;5.63;;
60306;SDS011;46155;52.364;6.580;2023-03-30T14:28:48;14.97;;;6.30;;
60306;SDS011;46155;52.364;6.580;2023-03-30T14:31:18;17.47;;;5.43;;
60306;SDS011;46155;52.364;6.580;2023-03-30T14:33:45;15.17;;;5.10;;
60306;SDS011;46155;52.364;6.580;2023-03-30T14:36:12;11.63;;;5.13;;
60306;SDS011;46155;52.364;6.580;2023-03-30T14:38:41;7.97;;;5.43;;
60306;SDS011;46155;52.364;6.580;2023-03-30T14:43:54;16.47;;;6.07;;
60306;SDS011;46155;52.364;6.580;2023-03-30T14:46:23;12.43;;;5.67;;
60306;SDS011;46155;52.364;6.580;2023-03-30T14:48:52;14.00;;;5.80;;
60306;SDS011;46155;52.364;6.580;2023-03-30T14:51:25;16.13;;;5.73;;
60306;SDS011;46155;52.364;6.580;2023-03-30T14:53:58;21.40;;;6.53;;
60306;SDS011;46155;52.364;6.580;2023-03-30T14:56:23;11.97;;;6.33;;
60306;SDS011;46155;52.364;6.580;2023-03-30T14:58:52;14.93;;;5.47;;
60306;SDS011;46155;52.364;6.580;2023-03-30T15:01:21;12.37;;;5.07;;
60306;SDS011;46155;52.364;6.580;2023-03-30T15:03:50;18.33;;;6.00;;
60306;SDS011;46155;52.364;6.580;2023-03-30T15:06:19;14.37;;;6.27;;
60306;SDS011;46155;52.364;6.580;2023-03-30T15:08:47;19.80;;;5.87;;
60306;SDS011;46155;52.364;6.580;2023-03-30T15:11:13;15.63;;;6.00;;
60306;SDS011;46155;52.364;6.580;2023-03-30T15:13:51;15.20;;;5.97;;
60306;SDS011;46155;52.364;6.580;2023-03-30T15:16:22;12.63;;;6.10;;
60306;SDS011;46155;52.364;6.580;2023-03-30T15:18:52;17.43;;;6.30;;
60306;SDS011;46155;52.364;6.580;2023-03-30T15:21:23;25.83;;;5.90;;
60306;SDS011;46155;52.364;6.580;2023-03-30T15:23:49;15.77;;;6.37;;
60306;SDS011;46155;52.364;6.580;2023-03-30T15:26:15;12.77;;;6.57;;
60306;SDS011;46155;52.364;6.580;2023-03-30T15:28:46;16.93;;;6.43;;
60306;SDS011;46155;52.364;6.580;2023-03-30T15:31:15;10.97;;;6.07;;
60306;SDS011;46155;52.364;6.580;2023-03-30T15:33:43;15.77;;;7.10;;
60306;SDS011;46155;52.364;6.580;2023-03-30T15:36:21;16.53;;;6.00;;
60306;SDS011;46155;52.364;6.580;2023-03-30T15:38:53;23.17;;;6.57;;
60306;SDS011;46155;52.364;6.580;2023-03-30T15:41:22;20.27;;;6.37;;
60306;SDS011;46155;52.364;6.580;2023-03-30T15:43:59;14.13;;;5.97;;
60306;SDS011;46155;52.364;6.580;2023-03-30T15:46:34;20.07;;;7.17;;
60306;SDS011;46155;52.364;6.580;2023-03-30T15:49:00;14.63;;;6.60;;
60306;SDS011;46155;52.364;6.580;2023-03-30T15:51:41;15.37;;;6.03;;
60306;SDS011;46155;52.364;6.580;2023-03-30T15:59:31;22.97;;;8.60;;
60306;SDS011;46155;52.364;6.580;2023-03-30T16:02:12;15.23;;;6.93;;
60306;SDS011;46155;52.364;6.580;2023-03-30T16:04:40;20.67;;;7.30;;
60306;SDS011;46155;52.364;6.580;2023-03-30T16:07:13;14.63;;;6.73;;
60306;SDS011;46155;52.364;6.580;2023-03-30T16:09:46;16.80;;;6.53;;
60306;SDS011;46155;52.364;6.580;2023-03-30T16:12:13;22.77;;;8.07;;
60306;SDS011;46155;52.364;6.580;2023-03-30T16:14:40;15.83;;;6.93;;
60306;SDS011;46155;52.364;6.580;2023-03-30T16:17:06;21.73;;;7.17;;
60306;SDS011;46155;52.364;6.580;2023-03-30T16:19:33;16.67;;;6.50;;
60306;SDS011;46155;52.364;6.580;2023-03-30T16:21:59;12.27;;;6.63;;
60306;SDS011;46155;52.364;6.580;2023-03-30T16:24:25;18.53;;;6.27;;
60306;SDS011;46155;52.364;6.580;2023-03-30T16:26:50;18.53;;;6.53;;
60306;SDS011;46155;52.364;6.580;2023-03-30T16:29:19;9.07;;;6.13;;
60306;SDS011;46155;52.364;6.580;2023-03-30T16:31:47;15.93;;;6.23;;
60306;SDS011;46155;52.364;6.580;2023-03-30T16:34:13;16.87;;;6.17;;
60306;SDS011;46155;52.364;6.580;2023-03-30T16:36:39;20.77;;;6.77;;
60306;SDS011;46155;52.364;6.580;2023-03-30T16:39:09;12.27;;;5.70;;
60306;SDS011;46155;52.364;6.580;2023-03-30T16:41:40;16.27;;;6.77;;
60306;SDS011;46155;52.364;6.580;2023-03-30T16:44:06;22.30;;;5.87;;
60306;SDS011;46155;52.364;6.580;2023-03-30T16:46:32;22.73;;;5.63;;
60306;SDS011;46155;52.364;6.580;2023-03-30T16:48:57;14.37;;;6.20;;
60306;SDS011;46155;52.364;6.580;2023-03-30T16:51:23;11.43;;;5.93;;
60306;SDS011;46155;52.364;6.580;2023-03-30T16:53:49;8.30;;;5.13;;
60306;SDS011;46155;52.364;6.580;2023-03-30T16:56:15;16.80;;;6.23;;
60306;SDS011;46155;52.364;6.580;2023-03-30T16:58:41;13.77;;;6.17;;
60306;SDS011;46155;52.364;6.580;2023-03-30T17:01:07;17.00;;;6.07;;
60306;SDS011;46155;52.364;6.580;2023-03-30T17:03:36;16.60;;;6.80;;
60306;SDS011;46155;52.364;6.580;2023-03-30T17:06:02;9.70;;;5.73;;
60306;SDS011;46155;52.364;6.580;2023-03-30T17:08:27;16.50;;;5.90;;
60306;SDS011;46155;52.364;6.580;2023-03-30T17:10:54;9.13;;;6.17;;
60306;SDS011;46155;52.364;6.580;2023-03-30T17:13:21;17.60;;;6.70;;
60306;SDS011;46155;52.364;6.580;2023-03-30T17:15:47;19.17;;;5.80;;
60306;SDS011;46155;52.364;6.580;2023-03-30T17:18:17;14.77;;;6.30;;
60306;SDS011;46155;52.364;6.580;2023-03-30T17:23:42;11.63;;;5.80;;
60306;SDS011;46155;52.364;6.580;2023-03-30T17:26:09;17.77;;;6.83;;
60306;SDS011;46155;52.364;6.580;2023-03-30T17:28:36;15.33;;;6.37;;
60306;SDS011;46155;52.364;6.580;2023-03-30T17:31:03;17.60;;;6.33;;
60306;SDS011;46155;52.364;6.580;2023-03-30T17:33:32;13.43;;;5.73;;
60306;SDS011;46155;52.364;6.580;2023-03-30T17:36:15;16.70;;;5.93;;
60306;SDS011;46155;52.364;6.580;2023-03-30T17:38:43;11.57;;;6.17;;
60306;SDS011;46155;52.364;6.580;2023-03-30T17:41:09;22.10;;;7.83;;
60306;SDS011;46155;52.364;6.580;2023-03-30T17:43:36;12.60;;;6.47;;
60306;SDS011;46155;52.364;6.580;2023-03-30T17:46:03;10.80;;;6.23;;
60306;SDS011;46155;52.364;6.580;2023-03-30T17:48:28;17.67;;;6.07;;
60306;SDS011;46155;52.364;6.580;2023-03-30T17:50:54;10.63;;;6.30;;
60306;SDS011;46155;52.364;6.580;2023-03-30T17:53:19;9.83;;;5.80;;
60306;SDS011;46155;52.364;6.580;2023-03-30T17:55:54;14.23;;;6.07;;
60306;SDS011;46155;52.364;6.580;2023-03-30T18:00:46;15.73;;;6.73;;
60306;SDS011;46155;52.364;6.580;2023-03-30T18:03:13;11.63;;;5.83;;
60306;SDS011;46155;52.364;6.580;2023-03-30T18:05:39;13.97;;;5.97;;
60306;SDS011;46155;52.364;6.580;2023-03-30T18:08:05;10.80;;;6.67;;
60306;SDS011;46155;52.364;6.580;2023-03-30T18:10:34;7.67;;;6.83;;
60306;SDS011;46155;52.364;6.580;2023-03-30T18:13:01;11.23;;;6.57;;
60306;SDS011;46155;52.364;6.580;2023-03-30T18:15:27;13.87;;;7.40;;
60306;SDS011;46155;52.364;6.580;2023-03-30T18:17:53;11.10;;;7.10;;
60306;SDS011;46155;52.364;6.580;2023-03-30T18:22:46;21.17;;;7.83;;
60306;SDS011;46155;52.364;6.580;2023-03-30T18:25:12;13.47;;;7.67;;
60306;SDS011;46155;52.364;6.580;2023-03-30T18:27:38;18.83;;;7.53;;
60306;SDS011;46155;52.364;6.580;2023-03-30T18:30:20;12.37;;;6.63;;
60306;SDS011;46155;52.364;6.580;2023-03-30T18:32:48;10.97;;;7.03;;
60306;SDS011;46155;52.364;6.580;2023-03-30T18:35:14;14.97;;;7.40;;
60306;SDS011;46155;52.364;6.580;2023-03-30T18:37:41;13.87;;;6.67;;
60306;SDS011;46155;52.364;6.580;2023-03-30T18:40:26;12.33;;;7.30;;
60306;SDS011;46155;52.364;6.580;2023-03-30T18:42:54;16.57;;;8.93;;
60306;SDS011;46155;52.364;6.580;2023-03-30T18:47:56;15.87;;;8.00;;
60306;SDS011;46155;52.364;6.580;2023-03-30T18:50:28;9.67;;;7.80;;
60306;SDS011;46155;52.364;6.580;2023-03-30T18:52:57;22.57;;;8.27;;
60306;SDS011;46155;52.364;6.580;2023-03-30T18:55:22;11.77;;;8.33;;
60306;SDS011;46155;52.364;6.580;2023-03-30T18:57:49;20.20;;;8.53;;
60306;SDS011;46155;52.364;6.580;2023-03-30T19:02:47;21.70;;;9.60;;
60306;SDS011;46155;52.364;6.580;2023-03-30T19:05:13;12.50;;;8.20;;
60306;SDS011;46155;52.364;6.580;2023-03-30T19:07:40;13.60;;;9.63;;
60306;SDS011;46155;52.364;6.580;2023-03-30T19:10:08;10.40;;;7.90;;
60306;SDS011;46155;52.364;6.580;2023-03-30T19:12:35;19.20;;;9.10;;
60306;SDS011;46155;52.364;6.580;2023-03-30T19:15:00;21.40;;;9.00;;
60306;SDS011;46155;52.364;6.580;2023-03-30T19:17:26;34.47;;;9.27;;
60306;SDS011;46155;52.364;6.580;2023-03-30T19:19:51;16.73;;;8.57;;
60306;SDS011;46155;52.364;6.580;2023-03-30T19:22:16;14.33;;;8.53;;
60306;SDS011;46155;52.364;6.580;2023-03-30T19:24:41;16.00;;;8.33;;
60306;SDS011;46155;52.364;6.580;2023-03-30T19:27:07;18.27;;;9.43;;
60306;SDS011;46155;52.364;6.580;2023-03-30T19:29:32;15.80;;;7.90;;
60306;SDS011;46155;52.364;6.580;2023-03-30T19:31:59;20.70;;;9.07;;
60306;SDS011;46155;52.364;6.580;2023-03-30T19:34:25;14.03;;;8.43;;
60306;SDS011;46155;52.364;6.580;2023-03-30T19:36:50;19.77;;;9.33;;
60306;SDS011;46155;52.364;6.580;2023-03-30T19:39:16;14.70;;;8.70;;
60306;SDS011;46155;52.364;6.580;2023-03-30T19:41:42;21.43;;;9.27;;
60306;SDS011;46155;52.364;6.580;2023-03-30T19:44:07;18.50;;;8.90;;
60306;SDS011;46155;52.364;6.580;2023-03-30T19:46:32;18.93;;;8.87;;
60306;SDS011;46155;52.364;6.580;2023-03-30T19:48:57;16.43;;;9.03;;
60306;SDS011;46155;52.364;6.580;2023-03-30T19:51:23;14.63;;;9.00;;
60306;SDS011;46155;52.364;6.580;2023-03-30T19:53:48;16.03;;;9.83;;
60306;SDS011;46155;52.364;6.580;2023-03-30T19:56:13;21.37;;;9.97;;